Current Conditions (Updated 1:40pm on 7/18/24)
Temperature
 87°
-0.55
90°  
73°  
0
10
20
30
40
50
60
70
80
90
100
Dew Point
73°
78°  
70°  
-20
-10
0
10
20
30
40
50
60
70
80
Heat Index
95°
100°  
79°  
30
40
50
60
70
80
90
100
110
120
130
Heat Index
Humidity
63%
94% 
61% 
0
10
20
30
40
50
60
70
80
90
100
Barometer
29.93
   Steady
29.93  
29.81  
28.00
28.30
28.60
28.90
29.20
29.50
29.80
30.10
30.40
30.70
31.00
Temperature
Dew Point
Humidity
Pressure
Wind
0mph
 NW
Daily Rain
.00
.05
.10
.15
.20
.25
.30
.35
.40
.45
.50
Rain Today
 0.00" 
Month Rain
0.00
1.00
2.00
3.00
4.00
5.00
6.00
7.00
8.00
9.00
10.00
Month Rain
 5.98" 
Year Rain
0.00
5.00
10.00
15.00
20.00
25.00
30.00
35.00
40.00
45.00
50.00
Year Rain
 32.48" 
Sun & Moon Data
Sunrise 5:53am
Sunset 8:25pm
Moonrise 6:30pm
Moonset 2:32am
Moon % 85%
Other Rain Data
Past Hour 0.00 Past 24 Hours 0.00
Past 3 Hours 0.00 Past 7 Days 5.98
Past 6 Hours 0.00
Cloud Height
3531


7 Day Forecast
NWS Forecast for Georgetown, Sussex County Airport DE
National Weather Service Forecast for: Georgetown, Sussex County Airport DE
Issued by: National Weather Service Philadelphia, PA
Updated: 1:09 pm EDT Jul 18, 2024

Georgetown,DE.
 
This
Afternoon
This Afternoon: A chance of showers and thunderstorms.  Partly sunny, with a high near 87. North wind around 5 mph.  Chance of precipitation is 40%. New rainfall amounts of less than a tenth of an inch, except higher amounts possible in thunderstorms.
Chance
T-storms

Tonight

Tonight: A slight chance of showers and thunderstorms before 9pm.  Mostly cloudy, then gradually becoming mostly clear, with a low around 68. Calm wind becoming north around 5 mph.  Chance of precipitation is 20%.
Slight Chance
T-storms then
Partly Cloudy
Friday

Friday: Sunny, with a high near 84. Northeast wind 5 to 10 mph.
Sunny

Friday
Night
Friday Night: Mostly clear, with a low around 67. Calm wind.
Mostly Clear

Saturday

Saturday: A slight chance of showers between 11am and 2pm, then a slight chance of showers and thunderstorms after 2pm.  Partly sunny, with a high near 84. Calm wind becoming southeast around 5 mph in the afternoon.  Chance of precipitation is 20%.
Slight Chance
Showers then
Slight Chance
T-storms
Saturday
Night
Saturday Night: A chance of showers and thunderstorms.  Mostly cloudy, with a low around 70. Chance of precipitation is 30%.
Chance
Showers

Sunday

Sunday: A chance of showers and thunderstorms after 2pm.  Partly sunny, with a high near 86. Chance of precipitation is 30%.
Partly Sunny
then Chance
T-storms
Sunday
Night
Sunday Night: A chance of showers and thunderstorms before 8pm, then a chance of showers and thunderstorms after 2am.  Partly cloudy, with a low around 69. Chance of precipitation is 30%.
Chance
T-storms

Monday

Monday: A chance of showers and thunderstorms before 8am, then a chance of showers and thunderstorms after 2pm.  Partly sunny, with a high near 86. Chance of precipitation is 40%.
Chance
T-storms

Hi 87 °F Lo 68 °F Hi 84 °F Lo 67 °F Hi 84 °F Lo 70 °F Hi 86 °F Lo 69 °F Hi 86 °F

 

This Afternoon
 
A chance of showers and thunderstorms. Partly sunny, with a high near 87. North wind around 5 mph. Chance of precipitation is 40%. New rainfall amounts of less than a tenth of an inch, except higher amounts possible in thunderstorms.
Tonight
 
A slight chance of showers and thunderstorms before 9pm. Mostly cloudy, then gradually becoming mostly clear, with a low around 68. Calm wind becoming north around 5 mph. Chance of precipitation is 20%.
Friday
 
Sunny, with a high near 84. Northeast wind 5 to 10 mph.
Friday Night
 
Mostly clear, with a low around 67. Calm wind.
Saturday
 
A slight chance of showers between 11am and 2pm, then a slight chance of showers and thunderstorms after 2pm. Partly sunny, with a high near 84. Calm wind becoming southeast around 5 mph in the afternoon. Chance of precipitation is 20%.
Saturday Night
 
A chance of showers and thunderstorms. Mostly cloudy, with a low around 70. Chance of precipitation is 30%.
Sunday
 
A chance of showers and thunderstorms after 2pm. Partly sunny, with a high near 86. Chance of precipitation is 30%.
Sunday Night
 
A chance of showers and thunderstorms before 8pm, then a chance of showers and thunderstorms after 2am. Partly cloudy, with a low around 69. Chance of precipitation is 30%.
Monday
 
A chance of showers and thunderstorms before 8am, then a chance of showers and thunderstorms after 2pm. Partly sunny, with a high near 86. Chance of precipitation is 40%.
Monday Night
 
A chance of showers and thunderstorms. Mostly cloudy, with a low around 70. Chance of precipitation is 40%.
Tuesday
 
A chance of showers and thunderstorms. Partly sunny, with a high near 87. Chance of precipitation is 40%.
Tuesday Night
 
A chance of showers and thunderstorms. Mostly cloudy, with a low around 72. Chance of precipitation is 40%.
Wednesday
 
A chance of showers and thunderstorms. Partly sunny, with a high near 88. Chance of precipitation is 40%.

 

Forecast from NOAA-NWS for Georgetown, Sussex County Airport DE.

Current Front Map
Current Radar
Current Cloud Map
Area Weather Current Conditions
Nearby METAR Reports

KPHL - Philadelphia, Pennsylvania
Updated: Thu, 18-Jul-2024 12:54pm EDT
Mostly Cloudy
Mostly Cloudy
 Wind from N
Wind: N 7 mph , 11 km/h
Temperature: 82°F , 28°C
Heat Index: 84°F , 29°C
Dew Point: 64°F , 18°C
Humidity: 55%
Barometer: 29.93 inHg , 1013.5 hPa
Clouds: Mostly Cloudy
Visibility: 10 miles , 16 km
Cloud details: Partly Cloudy 3700 ft
Partly Cloudy 15000 ft
Mostly Cloudy 22000 ft
2024/07/18 16:54 KPHL 181654Z 35006KT 10SM SCT037 SCT150 BKN220 28/18 A2993 RMK AO2 SLP133 T02830183
KMPO - Mt. Pocono, Pennsylvania
Updated: Thu, 18-Jul-2024 12:53pm EDT
Partly Cloudy
Partly Cloudy
 Wind from NW
Wind: NW 8 mph , 13 km/h
Temperature: 73°F , 23°C
Dew Point: 59°F , 15°C
Humidity: 61%
Barometer: 30.01 inHg , 1016.3 hPa
Clouds: Partly Cloudy
Visibility: 10 miles , 16 km
Cloud details: Partly Cloudy 3600 ft
2024/07/18 16:53 KMPO 181653Z AUTO 31007KT 10SM SCT036 23/15 A3001 RMK AO2 SLP151 T02330150
 
KACY - Atlantic City, New Jersey
Updated: Thu, 18-Jul-2024 12:54pm EDT
Partly Cloudy
Partly Cloudy
 Wind from NNW
Wind: NNW 5 mph , 7 km/h
Temperature: 82°F , 28°C
Heat Index: 86°F , 30°C
Dew Point: 70°F , 21°C
Humidity: 66%
Barometer: 29.93 inHg , 1013.5 hPa
Clouds: Partly Cloudy
Visibility: 10 miles , 16 km
Cloud details: Partly Cloudy 11000 ft
2024/07/18 16:54 KACY 181654Z 34004KT 10SM SCT110 28/21 A2993 RMK AO2 SLP133 T02830211 $
KWWD - Wildwood, New Jersey
Updated: Thu, 18-Jul-2024 12:56pm EDT
Mostly Cloudy
Mostly Cloudy
 Wind from NNW
Wind: NNW 5 mph , 7 km/h
Temperature: 81°F , 27°C
Heat Index: 86°F , 30°C
Dew Point: 73°F , 23°C
Humidity: 79%
Barometer: 29.94 inHg , 1013.9 hPa
Clouds: Mostly Cloudy
Visibility: 10 miles , 16 km
Cloud details: Few Clouds 2200 ft
Mostly Cloudy 9000 ft
2024/07/18 16:56 KWWD 181656Z AUTO 34004KT 10SM FEW022 BKN090 27/23 A2994 RMK AO2 SLP138 T02720233
 
KGED - Georgetown, Delaware
Updated: Thu, 18-Jul-2024 12:54pm EDT
Mostly Cloudy
Mostly Cloudy
 Wind from N
Wind: N 6 mph , 9 km/h
Temperature: 84°F , 29°C
Heat Index: 88°F , 31°C
Dew Point: 70°F , 21°C
Humidity: 62%
Barometer: 29.93 inHg , 1013.5 hPa
Clouds: Mostly Cloudy
Visibility: 10 miles , 16 km
Cloud details: Mostly Cloudy 8000 ft
2024/07/18 16:54 KGED 181654Z AUTO 36005KT 10SM BKN080 29/21 A2993 RMK AO2 LTG DSNT SE AND S SLP136 T02890206
KDOV - Dover Afb, Delaware
Updated: Thu, 18-Jul-2024 12:55pm EDT
Mostly Cloudy
Mostly Cloudy
 Wind from N
Wind: N 8 mph , 13 km/h
Temperature: 82°F , 28°C
Heat Index: 86°F , 30°C
Dew Point: 72°F , 22°C
Humidity: 70%
Barometer: 29.91 inHg , 1012.9 hPa
Clouds: Mostly Cloudy
Visibility: 10 miles , 16 km
Cloud details: Partly Cloudy 2500 ft
Partly Cloudy 9500 ft
Mostly Cloudy 17000 ft
2024/07/18 16:55 KDOV 181655Z 01007KT 10SM SCT025 SCT095 BKN170 28/22 A2991 RMK AO2A SLP132 T02770215
 
KOXB - Ocean City, Maryland
Updated: Thu, 18-Jul-2024 1:31pm EDT
Thunderstorm rain, Mist, Overcast
Thunderstorm rain, Mist, Overcast
 Wind from SSE
Wind: SSE 3 mph , 6 km/h
Temperature: 73°F , 23°C
Dew Point: 73°F , 23°C
Humidity: 100%
Barometer: 29.94 inHg , 1013.9 hPa
Summary: Thunderstorm rain, Mist
Clouds: Overcast
Visibility: 2 1/2 miles , 4 km
Cloud details: Few Clouds 500 ft
Mostly Cloudy 5500 ft
Overcast 8000 ft
2024/07/18 17:31 KOXB 181731Z AUTO 16003KT 2 1/2SM TSRA BR FEW005 BKN055 OVC080 23/23 A2994 RMK AO2 LTG DSNT SW TSB1658E16B17 P0020 T02330228
KSBY - Salisbury, Maryland
Updated: Thu, 18-Jul-2024 1:06pm EDT
Mostly Cloudy
Mostly Cloudy
 Wind from NNW
Wind: NNW 5 mph , 7 km/h
Temperature: 84°F , 29°C
Heat Index: 89°F , 32°C
Dew Point: 72°F , 22°C
Humidity: 66%
Barometer: 29.93 inHg , 1013.5 hPa
Clouds: Mostly Cloudy
Visibility: 10 miles , 16 km
Cloud details: Few Clouds 3500 ft
Partly Cloudy 5000 ft
Mostly Cloudy 6500 ft
2024/07/18 17:06 KSBY 181706Z 34004KT 10SM FEW035 SCT050 BKN065 29/22 A2993 RMK AO2 LTG DSNT E T02940217
Severe Weather Map